Time,TemperatureF,DewpointF,PressureIn,WindDirection,WindDirectionDegrees,WindSpeedMPH,WindSpeedGustMPH,Humidity,HourlyPrecipIn,Conditions,Clouds,dailyrainin,SoftwareType,DateUTC
2013-06-24 00:00:00,69.1,67.0,30.12,WNW,292,0.0,0.0,93,0.00,SKC,,0.00,WeatherDisplay:10.37,2013-06-24 04:00:00,
2013-06-24 00:01:00,69.1,67.3,30.12,WNW,292,0.0,0.0,94,0.00,SKC,,0.00,WeatherDisplay:10.37,2013-06-24 04:01:00,
2013-06-24 00:02:00,68.9,67.1,30.12,WNW,292,0.0,0.0,94,0.00,SKC,,0.00,WeatherDisplay:10.37,2013-06-24 04:02:00,
2013-06-24 00:04:00,68.9,67.1,30.13,WNW,292,0.0,0.0,94,0.00,SKC,,0.00,WeatherDisplay:10.37,2013-06-24 04:04:00,
2013-06-24 00:09:00,68.9,67.1,30.13,WNW,292,0.0,0.0,94,0.00,SKC,SKC,0.00,WeatherDisplay:10.37,2013-06-24 04:09:00,
2013-06-24 00:10:00,68.9,67.1,30.13,WNW,292,0.0,0.0,94,0.00,SKC,,0.00,WeatherDisplay:10.37,2013-06-24 04:10:00,
2013-06-24 00:15:00,68.9,67.1,30.12,WNW,292,0.0,0.0,94,0.00,SKC,,0.00,WeatherDisplay:10.37,2013-06-24 04:15:00,
2013-06-24 00:20:00,68.9,67.1,30.12,WNW,292,0.0,0.0,94,0.00,SKC,,0.00,WeatherDisplay:10.37,2013-06-24 04:20:00,
2013-06-24 00:25:00,68.9,67.1,30.12,WNW,292,0.0,0.0,94,0.00,SKC,,0.00,WeatherDisplay:10.37,2013-06-24 04:25:00,
2013-06-24 00:30:00,68.5,67.0,30.12,WNW,292,0.0,0.0,95,0.00,SKC,,0.00,WeatherDisplay:10.37,2013-06-24 04:30:00,
2013-06-24 00:35:00,68.2,67.0,30.12,WNW,292,0.0,0.0,96,0.00,SKC,,0.00,WeatherDisplay:10.37,2013-06-24 04:35:00,
2013-06-24 00:40:00,68.2,67.0,30.13,WNW,292,0.0,0.0,96,0.00,SKC,,0.00,WeatherDisplay:10.37,2013-06-24 04:40:00,
2013-06-24 00:45:00,68.0,66.8,30.13,WNW,292,0.0,0.0,96,0.00,SKC,,0.00,WeatherDisplay:10.37,2013-06-24 04:45:00,
2013-06-24 00:50:00,68.0,66.8,30.13,WNW,292,0.0,0.0,96,0.00,SKC,,0.00,WeatherDisplay:10.37,2013-06-24 04:50:00,
2013-06-24 00:55:00,68.0,66.8,30.12,WNW,292,0.0,0.0,96,0.00,SKC,,0.00,WeatherDisplay:10.37,2013-06-24 04:55:00,
2013-06-24 01:00:00,68.0,66.5,30.12,WNW,292,0.0,0.0,95,0.00,SKC,,0.00,WeatherDisplay:10.37,2013-06-24 05:00:00,
2013-06-24 01:05:00,67.5,66.3,30.12,WNW,292,0.0,0.0,96,0.00,SKC,,0.00,WeatherDisplay:10.37,2013-06-24 05:05:00,
2013-06-24 01:10:00,67.3,66.4,30.12,WNW,292,0.0,0.0,97,0.00,SKC,,0.00,WeatherDisplay:10.37,2013-06-24 05:10:00,
2013-06-24 01:15:00,67.3,66.4,30.12,WNW,292,0.0,0.0,97,0.00,SKC,,0.00,WeatherDisplay:10.37,2013-06-24 05:15:00,
2013-06-24 01:20:00,67.3,66.4,30.12,WNW,292,0.0,0.0,97,0.00,SKC,,0.00,WeatherDisplay:10.37,2013-06-24 05:20:00,
2013-06-24 01:25:00,67.1,65.9,30.12,WNW,292,0.0,0.0,96,0.00,SKC,,0.00,WeatherDisplay:10.37,2013-06-24 05:25:00,
2013-06-24 01:30:00,66.7,65.8,30.12,WNW,292,0.0,0.0,97,0.00,SKC,,0.00,WeatherDisplay:10.37,2013-06-24 05:30:00,
2013-06-24 01:35:00,66.7,65.8,30.12,WNW,292,0.0,0.0,97,0.00,SKC,,0.00,WeatherDisplay:10.37,2013-06-24 05:35:00,
2013-06-24 01:40:00,66.4,65.8,30.12,WNW,292,0.0,0.0,98,0.00,SKC,,0.00,WeatherDisplay:10.37,2013-06-24 05:40:00,
2013-06-24 01:45:00,66.4,65.8,30.12,WNW,292,0.0,0.0,98,0.00,SKC,,0.00,WeatherDisplay:10.37,2013-06-24 05:45:00,
2013-06-24 01:50:00,66.2,65.6,30.12,WNW,292,0.0,0.0,98,0.00,SKC,,0.00,WeatherDisplay:10.37,2013-06-24 05:50:00,
2013-06-24 01:55:00,66.2,65.6,30.12,WNW,292,0.0,0.0,98,0.00,SKC,,0.00,WeatherDisplay:10.37,2013-06-24 05:55:00,
2013-06-24 02:00:00,66.2,65.6,30.12,WNW,292,0.0,0.0,98,0.00,SKC,,0.00,WeatherDisplay:10.37,2013-06-24 06:00:00,
2013-06-24 02:06:00,66.0,65.4,30.12,WNW,292,0.0,0.0,98,0.00,SKC,,0.00,WeatherDisplay:10.37,2013-06-24 06:06:00,
2013-06-24 02:11:00,65.8,65.2,30.12,WNW,292,0.0,0.0,98,0.00,SKC,,0.00,WeatherDisplay:10.37,2013-06-24 06:11:00,
2013-06-24 02:16:00,65.8,65.2,30.12,WNW,292,0.0,0.0,98,0.00,SKC,,0.00,WeatherDisplay:10.37,2013-06-24 06:16:00,
2013-06-24 02:21:00,65.8,65.2,30.12,WNW,292,0.0,0.0,98,0.00,SKC,,0.00,WeatherDisplay:10.37,2013-06-24 06:21:00,
2013-06-24 02:27:00,65.7,65.1,30.12,WNW,292,0.0,0.0,98,0.00,SKC,,0.00,WeatherDisplay:10.37,2013-06-24 06:27:00,
2013-06-24 02:32:00,65.5,64.9,30.12,WNW,292,0.0,0.0,98,0.00,SKC,,0.00,WeatherDisplay:10.37,2013-06-24 06:32:00,
2013-06-24 02:37:00,65.5,65.2,30.12,WNW,292,0.0,0.0,99,0.00,SKC,,0.00,WeatherDisplay:10.37,2013-06-24 06:37:00,
2013-06-24 02:43:00,65.3,65.0,30.12,WNW,292,0.0,0.0,99,0.00,SKC,,0.00,WeatherDisplay:10.37,2013-06-24 06:43:00,
2013-06-24 02:48:00,65.3,65.0,30.12,WNW,292,0.0,0.0,99,0.00,SKC,,0.00,WeatherDisplay:10.37,2013-06-24 06:48:00,
2013-06-24 02:53:00,65.1,64.8,30.12,WNW,292,0.0,0.0,99,0.00,SKC,,0.00,WeatherDisplay:10.37,2013-06-24 06:53:00,
2013-06-24 02:58:00,65.1,64.8,30.12,WNW,292,0.0,0.0,99,0.00,SKC,,0.00,WeatherDisplay:10.37,2013-06-24 06:58:00,
2013-06-24 03:03:00,64.9,64.6,30.12,WNW,292,0.0,0.0,99,0.00,SKC,,0.00,WeatherDisplay:10.37,2013-06-24 07:03:00,
2013-06-24 03:08:00,64.9,64.6,30.12,WNW,292,0.0,0.0,99,0.00,SKC,,0.00,WeatherDisplay:10.37,2013-06-24 07:08:00,
2013-06-24 03:13:00,64.8,64.5,30.12,WNW,292,0.0,0.0,99,0.00,SKC,,0.00,WeatherDisplay:10.37,2013-06-24 07:13:00,
2013-06-24 03:18:00,64.8,64.5,30.12,WNW,292,0.0,0.0,99,0.00,SKC,,0.00,WeatherDisplay:10.37,2013-06-24 07:18:00,
2013-06-24 03:25:00,64.8,64.5,30.12,WNW,292,0.0,0.0,99,0.00,SKC,,0.00,WeatherDisplay:10.37,2013-06-24 07:25:00,
2013-06-24 03:30:00,64.6,64.3,30.12,WNW,292,0.0,0.0,99,0.00,SKC,,0.00,WeatherDisplay:10.37,2013-06-24 07:30:00,
2013-06-24 03:35:00,64.6,64.3,30.12,WNW,292,0.0,0.0,99,0.00,SKC,,0.00,WeatherDisplay:10.37,2013-06-24 07:35:00,
2013-06-24 03:40:00,64.4,64.1,30.12,WNW,292,0.0,0.0,99,0.00,SKC,,0.00,WeatherDisplay:10.37,2013-06-24 07:40:00,
2013-06-24 03:45:00,64.4,64.1,30.12,WNW,292,0.0,0.0,99,0.00,SKC,,0.00,WeatherDisplay:10.37,2013-06-24 07:45:00,
2013-06-24 03:50:00,64.4,64.1,30.12,WNW,292,0.0,0.0,99,0.00,SKC,,0.00,WeatherDisplay:10.37,2013-06-24 07:50:00,
2013-06-24 03:55:00,64.2,63.9,30.12,WNW,292,0.0,0.0,99,0.00,SKC,,0.00,WeatherDisplay:10.37,2013-06-24 07:55:00,
2013-06-24 04:00:00,64.0,64.0,30.12,WNW,292,0.0,0.0,100,0.00,SKC,,0.00,WeatherDisplay:10.37,2013-06-24 08:00:00,
2013-06-24 04:05:00,64.0,64.0,30.12,WNW,292,0.0,0.0,100,0.00,SKC,,0.00,WeatherDisplay:10.37,2013-06-24 08:05:00,
2013-06-24 04:10:00,63.9,63.9,30.12,WNW,292,0.0,0.0,100,0.00,SKC,,0.00,WeatherDisplay:10.37,2013-06-24 08:10:00,
2013-06-24 04:16:00,63.9,63.9,30.12,WNW,292,0.0,0.0,100,0.00,SKC,,0.00,WeatherDisplay:10.37,2013-06-24 08:16:00,
2013-06-24 04:22:00,63.7,63.7,30.12,WNW,292,0.0,0.0,100,0.00,SKC,,0.00,WeatherDisplay:10.37,2013-06-24 08:22:00,
2013-06-24 04:27:00,63.7,63.7,30.12,WNW,292,0.0,0.0,100,0.00,SKC,,0.00,WeatherDisplay:10.37,2013-06-24 08:27:00,
2013-06-24 04:33:00,63.7,63.7,30.12,WNW,292,0.0,0.0,100,0.00,SKC,,0.00,WeatherDisplay:10.37,2013-06-24 08:33:00,
2013-06-24 04:38:00,63.7,63.7,30.12,WNW,292,0.0,0.0,100,0.00,SKC,,0.00,WeatherDisplay:10.37,2013-06-24 08:38:00,
2013-06-24 04:43:00,63.3,63.3,30.12,WNW,292,0.0,0.0,100,0.00,SKC,,0.00,WeatherDisplay:10.37,2013-06-24 08:43:00,
2013-06-24 04:49:00,63.3,63.3,30.12,WNW,292,0.0,0.0,100,0.00,SKC,SKC,0.00,WeatherDisplay:10.37,2013-06-24 08:49:00,
2013-06-24 04:55:00,63.1,63.1,30.12,WNW,292,0.0,0.0,100,0.00,SKC,SKC,0.00,WeatherDisplay:10.37,2013-06-24 08:55:00,
2013-06-24 05:00:00,63.1,63.1,30.12,WNW,292,0.0,0.0,100,0.00,SKC,,0.00,WeatherDisplay:10.37,2013-06-24 09:00:00,
2013-06-24 05:05:00,63.1,63.1,30.12,WNW,292,0.0,0.0,100,0.00,SKC,,0.00,WeatherDisplay:10.37,2013-06-24 09:05:00,
2013-06-24 05:10:00,63.0,63.0,30.12,WNW,292,0.0,0.0,100,0.00,SKC,,0.00,WeatherDisplay:10.37,2013-06-24 09:10:00,
2013-06-24 05:15:00,63.0,63.0,30.12,WNW,292,0.0,0.0,100,0.00,SKC,,0.00,WeatherDisplay:10.37,2013-06-24 09:15:00,
2013-06-24 05:20:00,63.0,63.0,30.12,WNW,292,0.0,0.0,100,0.00,SKC,SKC,0.00,WeatherDisplay:10.37,2013-06-24 09:20:00,
2013-06-24 05:24:00,63.1,63.1,30.12,WNW,292,0.0,0.0,100,0.00,SKC,SKC,0.00,WeatherDisplay:10.37,2013-06-24 09:24:00,
2013-06-24 05:30:00,63.0,63.0,30.12,WNW,292,0.0,0.0,100,0.00,SKC,,0.00,WeatherDisplay:10.37,2013-06-24 09:30:00,
2013-06-24 05:34:00,63.0,63.0,30.12,WNW,292,0.0,0.0,100,0.00,SKC,SKC,0.00,WeatherDisplay:10.37,2013-06-24 09:34:00,
2013-06-24 05:40:00,62.8,62.8,30.12,WNW,292,0.0,0.0,100,0.00,SKC,,0.00,WeatherDisplay:10.37,2013-06-24 09:40:00,
2013-06-24 05:46:00,62.8,62.8,30.12,WNW,292,0.0,0.0,100,0.00,SKC,,0.00,WeatherDisplay:10.37,2013-06-24 09:46:00,
2013-06-24 05:52:00,62.6,62.6,30.13,WNW,292,0.0,0.0,100,0.00,SKC,,0.00,WeatherDisplay:10.37,2013-06-24 09:52:00,
2013-06-24 05:58:00,62.6,62.6,30.13,WNW,292,0.0,0.0,100,0.00,SKC,,0.00,WeatherDisplay:10.37,2013-06-24 09:58:00,
2013-06-24 06:04:00,62.8,62.8,30.13,WNW,292,0.0,0.0,100,0.00,SKC,,0.00,WeatherDisplay:10.37,2013-06-24 10:04:00,
2013-06-24 06:09:00,62.8,62.8,30.13,WNW,292,0.0,0.0,100,0.00,SKC,,0.00,WeatherDisplay:10.37,2013-06-24 10:09:00,
2013-06-24 06:14:00,62.6,62.6,30.13,WNW,292,0.0,0.0,100,0.00,SKC,,0.00,WeatherDisplay:10.37,2013-06-24 10:14:00,
2013-06-24 06:19:00,62.6,62.6,30.14,WNW,292,0.0,0.0,100,0.00,SKC,,0.00,WeatherDisplay:10.37,2013-06-24 10:19:00,
2013-06-24 06:24:00,62.6,62.6,30.14,WNW,292,0.0,0.0,100,0.00,SKC,,0.00,WeatherDisplay:10.37,2013-06-24 10:24:00,
2013-06-24 06:29:00,62.8,62.8,30.14,WNW,292,0.0,0.0,100,0.00,SKC,,0.00,WeatherDisplay:10.37,2013-06-24 10:29:00,
2013-06-24 06:34:00,63.0,63.0,30.14,WNW,292,0.0,0.0,100,0.00,SKC,,0.00,WeatherDisplay:10.37,2013-06-24 10:34:00,
2013-06-24 06:39:00,63.1,63.1,30.14,WNW,292,0.0,0.0,100,0.00,SKC,,0.00,WeatherDisplay:10.37,2013-06-24 10:39:00,
2013-06-24 06:44:00,63.5,63.5,30.14,WNW,292,0.0,0.0,100,0.00,SKC,,0.00,WeatherDisplay:10.37,2013-06-24 10:44:00,
2013-06-24 06:49:00,63.9,63.9,30.14,WNW,292,0.0,0.0,100,0.00,SKC,,0.00,WeatherDisplay:10.37,2013-06-24 10:49:00,
2013-06-24 06:54:00,64.2,64.2,30.14,WNW,292,0.0,0.0,100,0.00,SKC,,0.00,WeatherDisplay:10.37,2013-06-24 10:54:00,
2013-06-24 07:00:00,64.9,64.9,30.14,WNW,292,0.0,0.0,100,0.00,SKC,,0.00,WeatherDisplay:10.37,2013-06-24 11:00:00,
2013-06-24 07:06:00,66.0,64.8,30.14,SW,225,2.5,3.6,96,0.00,SKC,,0.00,WeatherDisplay:10.37,2013-06-24 11:06:00,
2013-06-24 07:11:00,66.6,65.1,30.14,SW,225,0.0,0.0,95,0.00,SKC,,0.00,WeatherDisplay:10.37,2013-06-24 11:11:00,
2013-06-24 07:17:00,66.9,65.1,30.15,SW,225,0.0,0.0,94,0.00,SKC,,0.00,WeatherDisplay:10.37,2013-06-24 11:17:00,
2013-06-24 07:23:00,67.6,65.5,30.15,SW,225,0.0,0.0,93,0.00,SKC,,0.00,WeatherDisplay:10.37,2013-06-24 11:23:00,
2013-06-24 07:28:00,68.0,65.6,30.15,SW,225,0.0,0.0,92,0.00,SKC,,0.00,WeatherDisplay:10.37,2013-06-24 11:28:00,
2013-06-24 07:34:00,68.7,66.0,30.15,SW,225,0.9,4.4,91,0.00,SKC,,0.00,WeatherDisplay:10.37,2013-06-24 11:34:00,
2013-06-24 07:39:00,69.4,66.0,30.15,WSW,248,0.0,0.0,89,0.00,SKC,,0.00,WeatherDisplay:10.37,2013-06-24 11:39:00,
2013-06-24 07:44:00,70.5,66.4,30.15,WSW,248,2.6,2.7,87,0.00,SKC,,0.00,WeatherDisplay:10.37,2013-06-24 11:44:00,
2013-06-24 07:49:00,71.6,66.8,30.15,South,180,0.0,4.6,85,0.00,SKC,,0.00,WeatherDisplay:10.37,2013-06-24 11:49:00,
2013-06-24 07:54:00,73.0,67.2,30.15,South,180,3.0,4.6,82,0.00,SKC,,0.00,WeatherDisplay:10.37,2013-06-24 11:54:00,
2013-06-24 07:59:00,73.8,67.6,30.15,SW,225,2.4,2.7,81,0.00,SKC,,0.00,WeatherDisplay:10.37,2013-06-24 11:59:00,
2013-06-24 08:04:00,75.0,68.0,30.14,SSW,195,3.0,5.0,79,0.00,SKC,SKC,0.00,WeatherDisplay:10.37,2013-06-24 12:04:00,
2013-06-24 08:10:00,76.1,68.0,30.14,South,180,0.4,2.3,76,0.00,SKC,,0.00,WeatherDisplay:10.37,2013-06-24 12:10:00,
2013-06-24 08:15:00,76.5,68.0,30.14,SSW,202,2.2,2.7,75,0.00,SKC,,0.00,WeatherDisplay:10.37,2013-06-24 12:15:00,
2013-06-24 08:20:00,77.4,68.5,30.15,SW,225,2.6,4.6,74,0.00,SKC,,0.00,WeatherDisplay:10.37,2013-06-24 12:20:00,
2013-06-24 08:25:00,78.3,68.5,30.15,South,180,3.5,4.6,72,0.00,SKC,,0.00,WeatherDisplay:10.37,2013-06-24 12:25:00,
2013-06-24 08:30:00,78.8,68.6,30.14,SW,225,3.6,4.6,71,0.00,SKC,,0.00,WeatherDisplay:10.37,2013-06-24 12:30:00,
2013-06-24 08:36:00,79.2,68.6,30.14,SW,225,4.6,6.1,70,0.00,SKC,,0.00,WeatherDisplay:10.37,2013-06-24 12:36:00,
2013-06-24 08:41:00,79.2,68.1,30.15,South,180,4.0,6.1,69,0.00,SKC,,0.00,WeatherDisplay:10.37,2013-06-24 12:41:00,
2013-06-24 08:46:00,81.3,68.9,30.15,WSW,248,3.5,5.8,66,0.00,SKC,,0.00,WeatherDisplay:10.37,2013-06-24 12:46:00,
2013-06-24 08:51:00,82.0,69.5,30.15,East,90,3.3,5.8,66,0.00,SKC,,0.00,WeatherDisplay:10.37,2013-06-24 12:51:00,
2013-06-24 08:56:00,82.2,69.7,30.15,WNW,292,4.4,5.8,66,0.00,SKC,,0.00,WeatherDisplay:10.37,2013-06-24 12:56:00,
2013-06-24 09:01:00,84.0,69.6,30.15,WNW,292,3.7,5.8,62,0.00,SKC,,0.00,WeatherDisplay:10.37,2013-06-24 13:01:00,
2013-06-24 09:06:00,84.0,70.0,30.15,WSW,248,2.3,3.6,63,0.00,SKC,,0.00,WeatherDisplay:10.37,2013-06-24 13:06:00,
2013-06-24 09:12:00,85.6,69.6,30.15,West,270,5.0,6.1,59,0.00,SKC,,0.00,WeatherDisplay:10.37,2013-06-24 13:12:00,
2013-06-24 09:17:00,84.2,69.8,30.15,South,180,5.2,7.0,62,0.00,SKC,,0.00,WeatherDisplay:10.37,2013-06-24 13:17:00,
2013-06-24 09:22:00,80.4,68.9,30.15,South,180,3.1,8.1,68,0.00,SKC,,0.00,WeatherDisplay:10.37,2013-06-24 13:22:00,
2013-06-24 09:27:00,79.7,68.6,30.15,SSE,158,4.3,6.9,69,0.00,SKC,,0.00,WeatherDisplay:10.37,2013-06-24 13:27:00,
2013-06-24 09:32:00,80.1,68.6,30.15,SW,225,3.9,6.1,68,0.00,SKC,,0.00,WeatherDisplay:10.37,2013-06-24 13:32:00,
2013-06-24 09:37:00,80.2,69.1,30.15,South,180,4.7,8.1,69,0.00,SKC,,0.00,WeatherDisplay:10.37,2013-06-24 13:37:00,
2013-06-24 09:42:00,80.8,69.2,30.15,SW,225,4.2,7.0,68,0.00,SKC,,0.00,WeatherDisplay:10.37,2013-06-24 13:42:00,
2013-06-24 09:47:00,80.6,69.1,30.15,SSW,202,4.9,6.9,68,0.00,SKC,,0.00,WeatherDisplay:10.37,2013-06-24 13:47:00,
2013-06-24 09:53:00,80.8,69.2,30.15,WSW,248,4.0,5.8,68,0.00,SKC,,0.00,WeatherDisplay:10.37,2013-06-24 13:53:00,
2013-06-24 09:58:00,80.8,69.2,30.15,NW,315,5.4,7.0,68,0.00,SKC,,0.00,WeatherDisplay:10.37,2013-06-24 13:58:00,
2013-06-24 10:03:00,81.5,70.3,30.15,West,270,4.4,6.1,69,0.00,SKC,,0.00,WeatherDisplay:10.37,2013-06-24 14:03:00,
2013-06-24 10:09:00,81.5,69.9,30.15,SSW,202,3.6,5.8,68,0.00,SKC,,0.00,WeatherDisplay:10.37,2013-06-24 14:09:00,
2013-06-24 10:14:00,81.7,70.1,30.15,West,270,6.0,7.0,68,0.00,SKC,,0.00,WeatherDisplay:10.37,2013-06-24 14:14:00,
2013-06-24 10:19:00,82.6,70.5,30.15,SW,225,5.7,8.1,67,0.00,SKC,,0.00,WeatherDisplay:10.37,2013-06-24 14:19:00,
2013-06-24 10:24:00,82.9,70.4,30.15,South,180,5.0,6.1,66,0.00,SKC,,0.00,WeatherDisplay:10.37,2013-06-24 14:24:00,
2013-06-24 10:29:00,82.8,70.3,30.15,SSW,202,5.4,6.1,66,0.00,SKC,,0.00,WeatherDisplay:10.37,2013-06-24 14:29:00,
2013-06-24 10:34:00,82.9,69.9,30.15,West,270,5.1,8.1,65,0.00,SKC,,0.00,WeatherDisplay:10.37,2013-06-24 14:34:00,
2013-06-24 10:39:00,82.4,69.4,30.15,WSW,248,4.3,5.8,65,0.00,SKC,,0.00,WeatherDisplay:10.37,2013-06-24 14:39:00,
2013-06-24 10:44:00,83.5,69.1,30.15,North,360,3.8,8.1,62,0.00,SKC,,0.00,WeatherDisplay:10.37,2013-06-24 14:44:00,
2013-06-24 10:50:00,83.3,68.4,30.15,SW,231,3.0,8.0,61,0.00,SKC,SKC,0.00,WeatherDisplay:10.37,2013-06-24 14:50:00,
2013-06-24 10:54:00,83.8,68.4,30.15,West,268,6.0,10.0,60,0.00,SKC,SKC,0.00,WeatherDisplay:10.37,2013-06-24 14:54:00,
2013-06-24 11:00:00,84.9,69.0,30.15,West,270,3.9,6.1,59,0.00,SKC,,0.00,WeatherDisplay:10.37,2013-06-24 15:00:00,
2013-06-24 11:05:00,84.7,69.8,30.15,West,270,3.1,4.6,61,0.00,SCT,,0.00,WeatherDisplay:10.37,2013-06-24 15:05:00,
2013-06-24 11:10:00,84.9,68.5,30.15,South,180,5.7,6.1,58,0.00,SCT,,0.00,WeatherDisplay:10.37,2013-06-24 15:10:00,
2013-06-24 11:16:00,83.7,68.3,30.15,NNW,338,2.8,4.6,60,0.00,SCT,,0.00,WeatherDisplay:10.37,2013-06-24 15:16:00,
2013-06-24 11:21:00,84.6,68.2,30.15,East,90,4.7,9.2,58,0.00,SCT,,0.00,WeatherDisplay:10.37,2013-06-24 15:21:00,
2013-06-24 11:26:00,85.1,68.2,30.15,WNW,292,3.1,5.8,57,0.00,SCT,,0.00,WeatherDisplay:10.37,2013-06-24 15:26:00,
2013-06-24 11:31:00,84.4,67.5,30.15,West,270,4.0,9.5,57,0.00,SCT,,0.00,WeatherDisplay:10.37,2013-06-24 15:31:00,
2013-06-24 11:36:00,85.3,67.3,30.15,WSW,248,5.6,6.1,55,0.00,SCT,,0.00,WeatherDisplay:10.37,2013-06-24 15:36:00,
2013-06-24 11:41:00,84.4,67.0,30.15,West,270,5.8,11.5,56,0.00,SCT,,0.00,WeatherDisplay:10.37,2013-06-24 15:41:00,
2013-06-24 11:46:00,84.7,67.3,30.15,North,360,3.1,5.8,56,0.00,SCT,,0.00,WeatherDisplay:10.37,2013-06-24 15:46:00,
2013-06-24 11:51:00,86.2,68.1,30.15,SSW,202,5.3,8.1,55,0.00,SCT,,0.00,WeatherDisplay:10.37,2013-06-24 15:51:00,
2013-06-24 11:57:00,85.8,67.2,30.14,West,270,9.5,10.4,54,0.00,SCT,,0.00,WeatherDisplay:10.37,2013-06-24 15:57:00,
2013-06-24 12:02:00,84.7,67.8,30.14,NW,315,4.0,9.2,57,0.00,SCT,,0.00,WeatherDisplay:10.37,2013-06-24 16:02:00,
2013-06-24 12:08:00,86.2,67.6,30.13,SW,225,5.7,8.1,54,0.00,SCT,,0.00,WeatherDisplay:10.37,2013-06-24 16:08:00,
2013-06-24 12:13:00,86.0,66.9,30.13,WSW,248,5.4,9.2,53,0.00,SCT,,0.00,WeatherDisplay:10.37,2013-06-24 16:13:00,
2013-06-24 12:18:00,84.9,68.0,30.14,SW,225,2.6,6.1,57,0.00,SCT,,0.00,WeatherDisplay:10.37,2013-06-24 16:18:00,
2013-06-24 12:23:00,86.9,67.7,30.14,NE,45,3.8,6.9,53,0.00,SCT,,0.00,WeatherDisplay:10.37,2013-06-24 16:23:00,
2013-06-24 12:30:00,86.5,67.3,30.13,SW,225,5.7,12.9,53,0.00,SCT,,0.00,WeatherDisplay:10.37,2013-06-24 16:30:00,
2013-06-24 12:35:00,86.5,66.8,30.13,WSW,248,9.0,13.8,52,0.00,SCT,,0.00,WeatherDisplay:10.37,2013-06-24 16:35:00,
2013-06-24 12:40:00,86.5,66.2,30.13,West,270,9.2,11.5,51,0.00,SCT,,0.00,WeatherDisplay:10.37,2013-06-24 16:40:00,
2013-06-24 12:45:00,87.1,66.8,30.13,West,270,6.0,12.7,51,0.00,SCT,,0.00,WeatherDisplay:10.37,2013-06-24 16:45:00,
2013-06-24 12:50:00,87.6,67.2,30.13,West,270,6.0,8.1,51,0.00,SCT,,0.00,WeatherDisplay:10.37,2013-06-24 16:50:00,
2013-06-24 12:55:00,87.4,68.2,30.12,NW,315,4.3,8.1,53,0.00,SCT,,0.00,WeatherDisplay:10.37,2013-06-24 16:55:00,
2013-06-24 13:00:00,86.9,67.7,30.12,WSW,248,6.0,9.2,53,0.00,SCT,,0.00,WeatherDisplay:10.37,2013-06-24 17:00:00,
2013-06-24 13:05:00,87.4,67.1,30.12,NW,315,5.3,7.0,51,0.00,SCT,,0.00,WeatherDisplay:10.37,2013-06-24 17:05:00,
2013-06-24 13:10:00,87.4,67.1,30.12,NNW,338,8.5,12.1,51,0.00,SCT,,0.00,WeatherDisplay:10.37,2013-06-24 17:10:00,
2013-06-24 13:15:00,87.8,67.4,30.12,SSW,202,5.0,9.2,51,0.00,SCT,,0.00,WeatherDisplay:10.37,2013-06-24 17:15:00,
2013-06-24 13:20:00,86.9,67.2,30.11,WNW,292,6.5,12.1,52,0.00,SCT,,0.00,WeatherDisplay:10.37,2013-06-24 17:20:00,
2013-06-24 13:25:00,88.5,67.5,30.11,WNW,292,4.0,5.8,50,0.00,SCT,,0.00,WeatherDisplay:10.37,2013-06-24 17:25:00,
2013-06-24 13:30:00,89.2,67.5,30.11,West,270,7.4,9.5,49,0.00,SCT,,0.00,WeatherDisplay:10.37,2013-06-24 17:30:00,
2013-06-24 13:35:00,86.4,66.1,30.11,North,360,5.2,7.0,51,0.00,SCT,,0.00,WeatherDisplay:10.37,2013-06-24 17:35:00,
2013-06-24 13:40:00,85.8,66.1,30.11,West,270,3.3,4.6,52,0.00,SCT,,0.00,WeatherDisplay:10.37,2013-06-24 17:40:00,
2013-06-24 13:45:00,87.1,66.8,30.11,NNE,22,5.8,9.2,51,0.00,SCT,,0.00,WeatherDisplay:10.37,2013-06-24 17:45:00,
2013-06-24 13:50:00,88.5,66.9,30.11,West,270,5.6,15.4,49,0.00,SCT,,0.00,WeatherDisplay:10.37,2013-06-24 17:50:00,
2013-06-24 13:55:00,86.5,66.8,30.11,South,180,12.8,19.7,52,0.00,SCT,,0.00,WeatherDisplay:10.37,2013-06-24 17:55:00,
2013-06-24 14:00:00,80.4,65.2,30.11,WSW,248,11.7,15.4,60,0.00,SCT,,0.00,WeatherDisplay:10.37,2013-06-24 18:00:00,
2013-06-24 14:05:00,79.2,64.1,30.12,WSW,248,10.1,15.0,60,0.00,SCT,,0.00,WeatherDisplay:10.37,2013-06-24 18:05:00,
2013-06-24 14:10:00,77.9,63.4,30.12,South,180,7.0,12.7,61,0.00,SCT,,0.00,WeatherDisplay:10.37,2013-06-24 18:10:00,
2013-06-24 14:15:00,76.1,63.5,30.12,SW,225,8.1,12.7,65,0.00,SCT,,0.00,WeatherDisplay:10.37,2013-06-24 18:15:00,
2013-06-24 14:20:00,77.4,64.3,30.12,SW,225,5.4,8.1,64,0.00,SCT,,0.00,WeatherDisplay:10.37,2013-06-24 18:20:00,
2013-06-24 14:26:00,77.2,64.5,30.12,SSW,202,2.1,10.4,65,0.00,SCT,,0.00,WeatherDisplay:10.37,2013-06-24 18:26:00,
2013-06-24 14:31:00,76.6,64.8,30.11,SW,225,3.5,6.9,67,0.00,SCT,,0.00,WeatherDisplay:10.37,2013-06-24 18:31:00,
2013-06-24 14:36:00,74.5,65.3,30.11,West,270,3.2,8.1,73,0.01,RA,,0.01,WeatherDisplay:10.37,2013-06-24 18:36:00,
2013-06-24 14:41:00,75.4,68.1,30.11,East,90,3.6,6.1,78,0.02,RA,,0.02,WeatherDisplay:10.37,2013-06-24 18:41:00,
2013-06-24 14:46:00,76.5,68.0,30.11,WSW,248,0.9,3.5,75,0.02,RA,,0.02,WeatherDisplay:10.37,2013-06-24 18:46:00,
2013-06-24 14:51:00,78.3,69.7,30.11,ESE,112,0.7,3.6,75,0.02,RA,,0.02,WeatherDisplay:10.37,2013-06-24 18:51:00,
2013-06-24 14:57:00,79.7,69.0,30.09,ESE,112,1.7,4.6,70,0.02,SCT,,0.02,WeatherDisplay:10.37,2013-06-24 18:57:00,
2013-06-24 15:03:00,81.1,69.5,30.09,SE,135,1.7,4.6,68,0.02,BKN,,0.02,WeatherDisplay:10.37,2013-06-24 19:03:00,
2013-06-24 15:08:00,81.9,68.5,30.09,ESE,112,4.4,5.8,64,0.02,BKN,,0.02,WeatherDisplay:10.37,2013-06-24 19:08:00,
2013-06-24 15:14:00,83.3,69.8,30.09,SE,135,3.0,3.6,64,0.02,BKN,,0.02,WeatherDisplay:10.37,2013-06-24 19:14:00,
2013-06-24 15:19:00,84.2,68.8,30.08,SSW,202,5.2,6.1,60,0.02,BKN,,0.02,WeatherDisplay:10.37,2013-06-24 19:19:00,
2013-06-24 15:25:00,83.3,67.9,30.08,South,180,5.0,6.0,60,0.00,BKN,BKN,0.02,WeatherDisplay:10.37,2013-06-24 19:25:00,
2013-06-24 15:31:00,84.6,69.7,30.07,SSE,158,4.4,8.1,61,0.02,BKN,,0.02,WeatherDisplay:10.37,2013-06-24 19:31:00,
2013-06-24 15:37:00,84.0,69.6,30.07,SW,225,4.5,6.9,62,0.01,BKN,,0.02,WeatherDisplay:10.37,2013-06-24 19:37:00,
2013-06-24 15:42:00,84.6,69.7,30.07,West,270,4.8,5.8,61,0.00,BKN,,0.02,WeatherDisplay:10.37,2013-06-24 19:42:00,
2013-06-24 15:47:00,85.1,70.1,30.07,SW,225,2.9,5.8,61,0.00,BKN,,0.02,WeatherDisplay:10.37,2013-06-24 19:47:00,
2013-06-24 15:52:00,85.3,70.8,30.07,West,270,5.7,7.8,62,0.00,BKN,,0.02,WeatherDisplay:10.37,2013-06-24 19:52:00,
2013-06-24 15:57:00,85.5,70.0,30.07,West,270,5.4,8.1,60,0.00,BKN,,0.02,WeatherDisplay:10.37,2013-06-24 19:57:00,
2013-06-24 16:02:00,85.5,70.0,30.07,ESE,112,4.3,9.2,60,0.00,SCT,,0.02,WeatherDisplay:10.37,2013-06-24 20:02:00,
2013-06-24 16:07:00,86.0,69.0,30.06,South,180,5.5,9.2,57,0.00,SCT,,0.02,WeatherDisplay:10.37,2013-06-24 20:07:00,
2013-06-24 16:13:00,86.0,69.0,30.06,SSW,202,6.0,11.5,57,0.00,SCT,,0.02,WeatherDisplay:10.37,2013-06-24 20:13:00,
2013-06-24 16:18:00,85.5,69.0,30.05,SW,225,3.5,8.1,58,0.00,SCT,,0.02,WeatherDisplay:10.37,2013-06-24 20:18:00,
2013-06-24 16:24:00,86.5,70.0,30.05,South,180,8.7,10.4,58,0.00,SCT,,0.02,WeatherDisplay:10.37,2013-06-24 20:24:00,
2013-06-24 16:29:00,86.5,69.5,30.05,SSW,202,4.1,7.0,57,0.00,SCT,,0.02,WeatherDisplay:10.37,2013-06-24 20:29:00,
2013-06-24 16:34:00,85.9,69.4,30.05,SSW,198,3.0,10.0,58,0.00,SCT,SCT,0.02,WeatherDisplay:10.37,2013-06-24 20:34:00,
2013-06-24 16:40:00,86.4,69.9,30.04,SW,227,6.0,8.0,58,0.00,SCT,SCT,0.02,WeatherDisplay:10.37,2013-06-24 20:40:00,
2013-06-24 16:45:00,86.7,70.2,30.04,ENE,68,5.1,11.2,58,0.00,SCT,,0.02,WeatherDisplay:10.37,2013-06-24 20:45:00,
2013-06-24 16:50:00,86.3,69.3,30.04,SW,233,5.0,12.0,57,0.00,SCT,SCT,0.02,WeatherDisplay:10.37,2013-06-24 20:50:00,
2013-06-24 16:55:00,86.9,69.3,30.04,WSW,248,4.6,6.9,56,0.00,SCT,,0.02,WeatherDisplay:10.37,2013-06-24 20:55:00,
2013-06-24 17:01:00,87.3,69.7,30.04,SSW,202,4.0,11.5,56,0.00,SCT,,0.02,WeatherDisplay:10.37,2013-06-24 21:01:00,
2013-06-24 17:07:00,88.7,69.4,30.03,WSW,248,3.4,9.2,53,0.00,SCT,,0.02,WeatherDisplay:10.37,2013-06-24 21:07:00,
2013-06-24 17:12:00,92.8,70.2,30.03,NNW,338,5.5,6.9,48,0.00,SCT,,0.02,WeatherDisplay:10.37,2013-06-24 21:12:00,
2013-06-24 17:17:00,91.0,70.4,30.03,SW,225,4.1,5.8,51,0.00,SCT,,0.02,WeatherDisplay:10.37,2013-06-24 21:17:00,
2013-06-24 17:22:00,90.7,69.5,30.03,SW,225,5.7,7.0,50,0.00,SCT,,0.02,WeatherDisplay:10.37,2013-06-24 21:22:00,
2013-06-24 17:27:00,90.1,69.0,30.03,WSW,248,4.1,8.7,50,0.00,SCT,,0.02,WeatherDisplay:10.37,2013-06-24 21:27:00,
2013-06-24 17:32:00,90.1,69.0,30.03,SSW,202,6.4,8.1,50,0.00,SCT,,0.02,WeatherDisplay:10.37,2013-06-24 21:32:00,
2013-06-24 17:37:00,89.6,69.6,30.03,South,180,5.7,8.1,52,0.00,SCT,,0.02,WeatherDisplay:10.37,2013-06-24 21:37:00,
2013-06-24 17:42:00,90.3,70.3,30.03,South,180,6.1,8.1,52,0.00,SCT,,0.02,WeatherDisplay:10.37,2013-06-24 21:42:00,
2013-06-24 17:47:00,89.2,69.3,30.03,South,180,4.0,7.0,52,0.00,SCT,,0.02,WeatherDisplay:10.37,2013-06-24 21:47:00,
2013-06-24 17:52:00,89.1,69.7,30.03,SW,225,4.2,7.0,53,0.00,SCT,,0.02,WeatherDisplay:10.37,2013-06-24 21:52:00,
2013-06-24 17:59:00,88.5,69.7,30.03,West,270,6.0,8.1,54,0.00,SCT,,0.02,WeatherDisplay:10.37,2013-06-24 21:59:00,
2013-06-24 18:04:00,87.8,69.1,30.03,SW,225,6.0,6.9,54,0.00,SCT,,0.02,WeatherDisplay:10.37,2013-06-24 22:04:00,
2013-06-24 18:10:00,86.9,68.8,30.03,SW,225,3.5,5.8,55,0.00,SCT,,0.02,WeatherDisplay:10.37,2013-06-24 22:10:00,
2013-06-24 18:15:00,86.9,68.8,30.03,West,270,6.1,6.9,55,0.00,SCT,,0.02,WeatherDisplay:10.37,2013-06-24 22:15:00,
2013-06-24 18:20:00,86.7,69.1,30.03,South,180,3.6,5.8,56,0.00,SCT,,0.02,WeatherDisplay:10.37,2013-06-24 22:20:00,
2013-06-24 18:25:00,86.5,68.9,30.03,SW,225,4.2,5.8,56,0.00,SCT,,0.02,WeatherDisplay:10.37,2013-06-24 22:25:00,
2013-06-24 18:30:00,86.9,68.8,30.03,SSE,158,4.8,8.1,55,0.00,SCT,,0.02,WeatherDisplay:10.37,2013-06-24 22:30:00,
2013-06-24 18:35:00,86.0,68.5,30.03,SW,225,6.0,7.0,56,0.00,SCT,,0.02,WeatherDisplay:10.37,2013-06-24 22:35:00,
2013-06-24 18:40:00,86.0,69.0,30.03,SSE,158,4.4,5.8,57,0.00,SCT,,0.02,WeatherDisplay:10.37,2013-06-24 22:40:00,
2013-06-24 18:46:00,85.6,68.6,30.03,South,180,3.8,10.4,57,0.00,SCT,,0.02,WeatherDisplay:10.37,2013-06-24 22:46:00,
2013-06-24 18:51:00,85.3,68.3,30.03,WSW,248,6.4,8.1,57,0.00,SCT,,0.02,WeatherDisplay:10.37,2013-06-24 22:51:00,
2013-06-24 18:56:00,85.3,68.3,30.03,SW,225,3.7,5.8,57,0.00,SCT,,0.02,WeatherDisplay:10.37,2013-06-24 22:56:00,
2013-06-24 19:01:00,85.3,68.3,30.03,SSW,202,5.2,7.0,57,0.00,SCT,,0.02,WeatherDisplay:10.37,2013-06-24 23:01:00,
2013-06-24 19:06:00,85.1,68.7,30.03,NW,315,3.2,8.1,58,0.00,SCT,,0.02,WeatherDisplay:10.37,2013-06-24 23:06:00,
2013-06-24 19:11:00,84.0,68.1,30.03,West,270,2.9,3.6,59,0.00,SCT,,0.02,WeatherDisplay:10.37,2013-06-24 23:11:00,
2013-06-24 19:16:00,83.7,68.3,30.03,South,180,5.3,6.1,60,0.00,SCT,,0.02,WeatherDisplay:10.37,2013-06-24 23:16:00,
2013-06-24 19:21:00,83.3,68.4,30.03,WSW,248,2.8,4.6,61,0.00,SCT,,0.02,WeatherDisplay:10.37,2013-06-24 23:21:00,
2013-06-24 19:26:00,83.1,68.3,30.03,WSW,248,3.8,5.3,61,0.00,SCT,,0.02,WeatherDisplay:10.37,2013-06-24 23:26:00,
2013-06-24 19:31:00,83.7,69.3,30.02,SW,225,3.1,3.6,62,0.00,SCT,,0.02,WeatherDisplay:10.37,2013-06-24 23:31:00,
2013-06-24 19:36:00,84.0,69.1,30.02,SW,225,3.2,5.8,61,0.00,SCT,,0.02,WeatherDisplay:10.37,2013-06-24 23:36:00,
2013-06-24 19:41:00,84.6,69.7,30.02,WSW,248,2.7,2.7,61,0.00,SCT,,0.02,WeatherDisplay:10.37,2013-06-24 23:41:00,
2013-06-24 19:46:00,84.7,69.8,30.02,SW,225,0.0,2.3,61,0.00,SCT,,0.02,WeatherDisplay:10.37,2013-06-24 23:46:00,
2013-06-24 19:52:00,84.9,69.9,30.02,SSW,202,0.0,2.7,61,0.00,SCT,,0.02,WeatherDisplay:10.37,2013-06-24 23:52:00,
2013-06-24 19:57:00,84.6,69.2,30.02,SSW,202,2.7,3.6,60,0.00,SCT,,0.02,WeatherDisplay:10.37,2013-06-24 23:57:00,
2013-06-24 20:02:00,84.0,69.1,30.02,SSE,158,2.3,5.8,61,0.00,SCT,,0.02,WeatherDisplay:10.37,2013-06-25 00:02:00,
2013-06-24 20:07:00,83.3,69.4,30.02,SE,135,2.5,2.7,63,0.00,SCT,,0.02,WeatherDisplay:10.37,2013-06-25 00:07:00,
2013-06-24 20:12:00,82.4,69.4,30.02,SW,225,3.1,5.8,65,0.00,SCT,,0.02,WeatherDisplay:10.37,2013-06-25 00:12:00,
2013-06-24 20:17:00,82.2,69.3,30.02,SSE,158,1.9,3.6,65,0.00,SCT,,0.02,WeatherDisplay:10.37,2013-06-25 00:17:00,
2013-06-24 20:22:00,82.0,69.5,30.02,West,270,2.0,5.8,66,0.00,SCT,,0.02,WeatherDisplay:10.37,2013-06-25 00:22:00,
2013-06-24 20:28:00,80.8,69.2,30.02,West,270,0.0,0.0,68,0.00,SCT,,0.02,WeatherDisplay:10.37,2013-06-25 00:28:00,
2013-06-24 20:33:00,81.1,69.5,30.02,West,270,0.0,0.0,68,0.00,SCT,,0.02,WeatherDisplay:10.37,2013-06-25 00:33:00,
2013-06-24 20:38:00,80.6,69.1,30.02,SW,225,2.1,2.7,68,0.00,SCT,,0.02,WeatherDisplay:10.37,2013-06-25 00:38:00,
2013-06-24 20:43:00,79.9,69.2,30.03,WSW,248,0.6,3.5,70,0.00,SCT,,0.02,WeatherDisplay:10.37,2013-06-25 00:43:00,
2013-06-24 20:49:00,79.7,69.5,30.03,WSW,248,0.0,0.0,71,0.00,SCT,,0.02,WeatherDisplay:10.37,2013-06-25 00:49:00,
2013-06-24 20:54:00,79.3,69.1,30.03,WSW,248,0.0,0.0,71,0.00,SCT,,0.02,WeatherDisplay:10.37,2013-06-25 00:54:00,
2013-06-24 20:59:00,78.6,68.8,30.03,WSW,248,0.0,0.0,72,0.00,SCT,,0.02,WeatherDisplay:10.37,2013-06-25 00:59:00,
2013-06-24 21:04:00,78.1,68.7,30.03,WSW,248,0.0,0.0,73,0.00,SCT,,0.02,WeatherDisplay:10.37,2013-06-25 01:04:00,
2013-06-24 21:09:00,77.5,68.6,30.03,WSW,248,0.0,0.0,74,0.00,SCT,,0.02,WeatherDisplay:10.37,2013-06-25 01:09:00,
2013-06-24 21:14:00,77.0,68.5,30.03,WSW,248,0.0,0.0,75,0.00,SCT,,0.02,WeatherDisplay:10.37,2013-06-25 01:14:00,
2013-06-24 21:19:00,76.5,68.4,30.04,WSW,248,0.0,0.0,76,0.00,SCT,,0.02,WeatherDisplay:10.37,2013-06-25 01:19:00,
2013-06-24 21:24:00,76.1,68.0,30.04,WSW,248,0.0,0.0,76,0.00,SCT,,0.02,WeatherDisplay:10.37,2013-06-25 01:24:00,
2013-06-24 21:29:00,75.6,67.9,30.04,WSW,248,0.0,0.0,77,0.00,SCT,,0.02,WeatherDisplay:10.37,2013-06-25 01:29:00,
2013-06-24 21:34:00,75.0,68.0,30.04,WSW,248,0.0,0.0,79,0.00,SCT,,0.02,WeatherDisplay:10.37,2013-06-25 01:34:00,
2013-06-24 21:40:00,74.5,67.9,30.04,WSW,248,0.0,0.0,80,0.00,SCT,,0.02,WeatherDisplay:10.37,2013-06-25 01:40:00,
2013-06-24 21:46:00,74.1,68.3,30.04,WSW,248,0.0,0.0,82,0.00,SCT,,0.02,WeatherDisplay:10.37,2013-06-25 01:46:00,
2013-06-24 21:51:00,73.9,68.1,30.04,WSW,248,0.0,0.0,82,0.00,SCT,,0.02,WeatherDisplay:10.37,2013-06-25 01:51:00,
2013-06-24 21:56:00,73.4,67.9,30.05,WSW,248,0.0,0.0,83,0.00,SCT,,0.02,WeatherDisplay:10.37,2013-06-25 01:56:00,
2013-06-24 22:02:00,72.7,67.9,30.05,WSW,248,0.0,0.0,85,0.00,SCT,,0.02,WeatherDisplay:10.37,2013-06-25 02:02:00,
2013-06-24 22:07:00,72.3,67.9,30.05,WSW,248,0.0,0.0,86,0.00,SCT,,0.02,WeatherDisplay:10.37,2013-06-25 02:07:00,
2013-06-24 22:12:00,72.0,67.9,30.05,West,270,0.0,0.0,87,0.00,SCT,,0.02,WeatherDisplay:10.37,2013-06-25 02:12:00,
2013-06-24 22:17:00,71.8,67.7,30.05,West,270,0.0,0.0,87,0.00,SCT,,0.02,WeatherDisplay:10.37,2013-06-25 02:17:00,
2013-06-24 22:22:00,71.6,67.9,30.05,West,270,0.0,0.0,88,0.00,SCT,,0.02,WeatherDisplay:10.37,2013-06-25 02:22:00,
2013-06-24 22:27:00,71.6,67.9,30.06,West,270,0.0,0.0,88,0.00,SCT,,0.02,WeatherDisplay:10.37,2013-06-25 02:27:00,
2013-06-24 22:32:00,71.6,67.9,30.06,West,270,0.0,0.0,88,0.00,SCT,,0.02,WeatherDisplay:10.37,2013-06-25 02:32:00,
2013-06-24 22:37:00,71.6,67.9,30.06,West,270,0.0,0.0,88,0.00,SCT,,0.02,WeatherDisplay:10.37,2013-06-25 02:37:00,
2013-06-24 22:42:00,71.2,68.1,30.06,West,270,0.0,0.0,90,0.00,SCT,,0.02,WeatherDisplay:10.37,2013-06-25 02:42:00,
2013-06-24 22:49:00,71.1,68.3,30.06,West,270,0.0,0.0,91,0.00,SCT,,0.02,WeatherDisplay:10.37,2013-06-25 02:49:00,
2013-06-24 22:54:00,71.1,68.3,30.06,West,270,0.0,0.0,91,0.00,SCT,,0.02,WeatherDisplay:10.37,2013-06-25 02:54:00,
2013-06-24 22:59:00,70.9,68.1,30.06,West,270,0.0,0.0,91,0.00,SCT,,0.02,WeatherDisplay:10.37,2013-06-25 02:59:00,
2013-06-24 23:04:00,70.7,68.3,30.06,West,270,0.0,0.0,92,0.00,SCT,,0.02,WeatherDisplay:10.37,2013-06-25 03:04:00,
2013-06-24 23:09:00,70.7,68.3,30.06,West,270,0.0,0.0,92,0.00,SCT,,0.02,WeatherDisplay:10.37,2013-06-25 03:09:00,
2013-06-24 23:14:00,70.7,68.3,30.06,West,270,0.0,0.0,92,0.00,SCT,,0.02,WeatherDisplay:10.37,2013-06-25 03:14:00,
2013-06-24 23:19:00,70.7,67.9,30.06,West,270,0.0,0.0,91,0.00,SCT,,0.02,WeatherDisplay:10.37,2013-06-25 03:19:00,
2013-06-24 23:24:00,70.5,68.1,30.06,West,270,0.0,0.0,92,0.00,SCT,,0.02,WeatherDisplay:10.37,2013-06-25 03:24:00,
2013-06-24 23:29:00,70.5,68.1,30.05,West,270,0.0,0.0,92,0.00,SCT,,0.02,WeatherDisplay:10.37,2013-06-25 03:29:00,
2013-06-24 23:34:00,70.3,67.9,30.05,West,270,0.0,0.0,92,0.00,SCT,,0.02,WeatherDisplay:10.37,2013-06-25 03:34:00,
2013-06-24 23:40:00,70.2,67.8,30.06,West,270,0.0,0.0,92,0.00,SCT,SCT,0.02,WeatherDisplay:10.37,2013-06-25 03:40:00,
2013-06-24 23:45:00,70.0,67.9,30.06,West,270,0.0,0.0,93,0.00,SCT,,0.02,WeatherDisplay:10.37,2013-06-25 03:45:00,
2013-06-24 23:53:00,69.6,67.8,30.06,West,270,0.0,0.0,94,0.00,SCT,,0.02,WeatherDisplay:10.37,2013-06-25 03:53:00,